Time;durP1;ratioP1;P1;durP2;ratioP2;P2;SDS_P1;SDS_P2;PMS_P1;PMS_P2;Temp;Humidity;BMP_temperature;BMP_pressure;BME280_temperature;BME280_humidity;BME280_pressure;Samples;Min_cycle;Max_cycle;Signal;HPM_P1;HPM_P2
2023/12/22 00:00:06;;;;;;;1.38;0.57;;;;;;;;;;5096774;28;20204;-66
2023/12/22 00:02:33;;;;;;;0.90;0.65;;;;;;;;;;5097351;28;20204;-65
2023/12/22 00:05:01;;;;;;;1.63;0.77;;;;;;;;;;5097933;28;20227;-65
2023/12/22 00:07:29;;;;;;;1.15;0.50;;;;;;;;;;5096630;28;20526;-66
2023/12/22 00:09:56;;;;;;;1.77;0.85;;;;;;;;;;5096928;28;20257;-66
2023/12/22 00:12:24;;;;;;;0.88;0.50;;;;;;;;;;5097010;28;20203;-65
2023/12/22 00:14:53;;;;;;;1.10;0.50;;;;;;;;;;5097136;28;20207;-65
2023/12/22 00:17:20;;;;;;;1.30;0.80;;;;;;;;;;5097344;28;20211;-66
2023/12/22 00:19:48;;;;;;;1.13;0.60;;;;;;;;;;5097245;28;20218;-65
2023/12/22 00:22:16;;;;;;;2.03;0.80;;;;;;;;;;5097436;28;20204;-67
2023/12/22 00:24:43;;;;;;;2.22;0.77;;;;;;;;;;5096876;28;20268;-65
2023/12/22 00:27:11;;;;;;;0.75;0.50;;;;;;;;;;5097054;28;20211;-65
2023/12/22 00:29:38;;;;;;;1.65;0.60;;;;;;;;;;5096940;28;20639;-65
2023/12/22 00:32:09;;;;;;;1.75;0.73;;;;;;;;;;5097095;28;20261;-65
2023/12/22 00:34:37;;;;;;;2.67;0.90;;;;;;;;;;5096942;28;20195;-65
2023/12/22 00:37:05;;;;;;;1.55;0.68;;;;;;;;;;5096449;28;20628;-65
2023/12/22 00:39:33;;;;;;;1.88;0.70;;;;;;;;;;5097376;28;20211;-65
2023/12/22 00:42:01;;;;;;;1.63;0.70;;;;;;;;;;5098906;28;20268;-65
2023/12/22 00:44:29;;;;;;;1.92;0.80;;;;;;;;;;5101143;28;20203;-67
2023/12/22 00:46:57;;;;;;;1.65;0.85;;;;;;;;;;5100918;28;20215;-65
2023/12/22 00:49:26;;;;;;;1.88;0.75;;;;;;;;;;5101057;28;20207;-66
2023/12/22 00:51:54;;;;;;;2.20;1.00;;;;;;;;;;5101035;28;20457;-65
2023/12/22 00:54:21;;;;;;;1.92;0.80;;;;;;;;;;5100686;28;20203;-65
2023/12/22 00:56:48;;;;;;;2.22;0.70;;;;;;;;;;5100736;28;20293;-65
2023/12/22 00:59:16;;;;;;;1.38;0.82;;;;;;;;;;5083286;28;20653;-65
2023/12/22 01:01:44;;;;;;;1.20;0.60;;;;;;;;;;5080605;28;20222;-65
2023/12/22 01:04:12;;;;;;;1.55;0.63;;;;;;;;;;5080230;28;20255;-67
2023/12/22 01:06:41;;;;;;;1.77;0.80;;;;;;;;;;5079830;28;20610;-65
2023/12/22 01:09:09;;;;;;;2.80;0.85;;;;;;;;;;5080353;28;20212;-67
2023/12/22 01:11:36;;;;;;;1.33;0.82;;;;;;;;;;5080198;28;20204;-66
2023/12/22 01:14:04;;;;;;;2.67;0.80;;;;;;;;;;5080133;28;20543;-67
2023/12/22 01:16:31;;;;;;;2.35;1.00;;;;;;;;;;5080042;28;20232;-67
2023/12/22 01:18:59;;;;;;;2.70;1.10;;;;;;;;;;5080394;28;20204;-67
2023/12/22 01:21:26;;;;;;;1.48;0.80;;;;;;;;;;5080139;28;20299;-67
2023/12/22 01:23:55;;;;;;;2.58;0.95;;;;;;;;;;5080141;28;20204;-67
2023/12/22 01:26:23;;;;;;;2.55;0.82;;;;;;;;;;5080144;28;20252;-66
2023/12/22 01:28:50;;;;;;;1.67;0.80;;;;;;;;;;5080091;28;20543;-65
2023/12/22 01:31:19;;;;;;;1.67;0.82;;;;;;;;;;5079769;28;20640;-67
2023/12/22 01:33:46;;;;;;;1.20;0.80;;;;;;;;;;5079698;28;20258;-65
2023/12/22 01:36:14;;;;;;;1.23;0.70;;;;;;;;;;5079495;28;20232;-65
2023/12/22 01:38:41;;;;;;;1.77;0.77;;;;;;;;;;5079543;28;20629;-65
2023/12/22 01:41:10;;;;;;;1.90;0.70;;;;;;;;;;5079879;28;20274;-66
2023/12/22 01:43:38;;;;;;;1.88;0.80;;;;;;;;;;5079754;28;20216;-65
2023/12/22 01:46:07;;;;;;;1.73;1.00;;;;;;;;;;5079488;28;20633;-65
2023/12/22 01:48:35;;;;;;;1.65;0.70;;;;;;;;;;5079772;28;20719;-65
2023/12/22 01:51:03;;;;;;;1.88;0.80;;;;;;;;;;5079666;28;20508;-65
2023/12/22 01:53:31;;;;;;;2.83;1.05;;;;;;;;;;5079444;28;20303;-65
2023/12/22 01:56:00;;;;;;;1.73;1.00;;;;;;;;;;5079149;28;20228;-65
2023/12/22 01:58:30;;;;;;;3.03;0.98;;;;;;;;;;5089351;28;20688;-65
2023/12/22 02:00:58;;;;;;;1.77;0.90;;;;;;;;;;5099407;28;20209;-65
2023/12/22 02:03:27;;;;;;;1.48;0.88;;;;;;;;;;5099647;28;20461;-66
2023/12/22 02:05:54;;;;;;;1.50;0.70;;;;;;;;;;5099506;28;20674;-66
2023/12/22 02:08:22;;;;;;;2.17;0.85;;;;;;;;;;5099622;28;20217;-65
2023/12/22 02:10:50;;;;;;;1.85;0.70;;;;;;;;;;5099340;28;20204;-65
2023/12/22 02:13:18;;;;;;;2.30;0.85;;;;;;;;;;5099523;28;20231;-65
2023/12/22 02:15:47;;;;;;;1.45;0.80;;;;;;;;;;5099224;28;20227;-66
2023/12/22 02:18:18;;;;;;;2.38;0.82;;;;;;;;;;5099565;28;20269;-65
2023/12/22 02:20:46;;;;;;;2.08;0.73;;;;;;;;;;5099082;28;20204;-65
2023/12/22 02:23:14;;;;;;;1.90;0.80;;;;;;;;;;5099203;28;20582;-65
2023/12/22 02:25:42;;;;;;;2.08;1.00;;;;;;;;;;5098756;28;20295;-65
2023/12/22 02:28:12;;;;;;;2.33;0.77;;;;;;;;;;5098740;28;20290;-66
2023/12/22 02:30:43;;;;;;;2.70;0.90;;;;;;;;;;5098891;28;20217;-66
2023/12/22 02:33:10;;;;;;;1.85;0.70;;;;;;;;;;5098982;28;20298;-66
2023/12/22 02:35:38;;;;;;;2.25;1.05;;;;;;;;;;5098989;28;20286;-66
2023/12/22 02:38:07;;;;;;;1.30;0.73;;;;;;;;;;5098963;28;20607;-66
2023/12/22 02:40:36;;;;;;;1.98;0.90;;;;;;;;;;5098861;28;20542;-66
2023/12/22 02:43:04;;;;;;;2.10;1.05;;;;;;;;;;5099104;28;20292;-66
2023/12/22 02:45:32;;;;;;;2.38;0.60;;;;;;;;;;5098769;28;20250;-66
2023/12/22 02:47:59;;;;;;;2.35;0.98;;;;;;;;;;5098470;28;20663;-66
2023/12/22 02:50:27;;;;;;;1.75;0.73;;;;;;;;;;5098703;28;20211;-65
2023/12/22 02:52:54;;;;;;;2.13;0.90;;;;;;;;;;5098230;28;20503;-65
2023/12/22 02:55:22;;;;;;;2.08;1.00;;;;;;;;;;5098964;28;20207;-65
2023/12/22 02:57:51;;;;;;;1.70;0.95;;;;;;;;;;5093560;28;20343;-65
2023/12/22 03:00:18;;;;;;;1.90;0.90;;;;;;;;;;5078477;28;20562;-65
2023/12/22 03:02:46;;;;;;;1.30;0.82;;;;;;;;;;5078338;28;20243;-66
2023/12/22 03:05:13;;;;;;;1.35;0.80;;;;;;;;;;5077287;28;20270;-66
2023/12/22 03:07:41;;;;;;;1.85;0.75;;;;;;;;;;5077774;28;20567;-65
2023/12/22 03:10:09;;;;;;;2.08;1.20;;;;;;;;;;5077787;28;20219;-66
2023/12/22 03:12:36;;;;;;;2.58;0.80;;;;;;;;;;5077482;28;20204;-65
2023/12/22 03:15:06;;;;;;;1.60;0.80;;;;;;;;;;5078089;28;20582;-65
2023/12/22 03:17:33;;;;;;;1.95;0.82;;;;;;;;;;5077834;28;20230;-65
2023/12/22 03:20:01;;;;;;;1.30;0.65;;;;;;;;;;5077813;28;20235;-66
2023/12/22 03:22:29;;;;;;;1.80;0.85;;;;;;;;;;5077502;28;20270;-65
2023/12/22 03:24:56;;;;;;;1.08;0.60;;;;;;;;;;5077858;28;20214;-65
2023/12/22 03:27:23;;;;;;;1.42;0.75;;;;;;;;;;5077647;28;20204;-66
2023/12/22 03:29:51;;;;;;;1.50;0.60;;;;;;;;;;5077953;28;20548;-65
2023/12/22 03:32:20;;;;;;;1.88;0.85;;;;;;;;;;5077770;28;20599;-65
2023/12/22 03:34:48;;;;;;;1.27;0.90;;;;;;;;;;5077486;28;20522;-65
2023/12/22 03:37:15;;;;;;;1.48;0.73;;;;;;;;;;5077278;28;20290;-66
2023/12/22 03:39:43;;;;;;;2.08;0.85;;;;;;;;;;5077761;28;20205;-65
2023/12/22 03:42:10;;;;;;;1.52;0.77;;;;;;;;;;5077446;28;20254;-66
2023/12/22 03:44:38;;;;;;;2.22;1.00;;;;;;;;;;5078062;28;20547;-65
2023/12/22 03:47:05;;;;;;;1.00;0.75;;;;;;;;;;5077991;28;20263;-65
2023/12/22 03:49:35;;;;;;;1.98;0.85;;;;;;;;;;5077489;28;20250;-66
2023/12/22 03:52:02;;;;;;;2.50;1.08;;;;;;;;;;5077463;28;20204;-66
2023/12/22 03:54:30;;;;;;;1.58;0.90;;;;;;;;;;5077105;28;20667;-66
2023/12/22 03:56:57;;;;;;;1.70;0.90;;;;;;;;;;5076145;28;20282;-66
2023/12/22 03:59:24;;;;;;;2.03;0.90;;;;;;;;;;5076831;28;20725;-65
2023/12/22 04:01:55;;;;;;;1.40;0.70;;;;;;;;;;5077831;28;20544;-66
2023/12/22 04:04:23;;;;;;;1.25;0.90;;;;;;;;;;5077352;28;20216;-66
2023/12/22 04:06:52;;;;;;;1.50;0.90;;;;;;;;;;5077131;28;20303;-66
2023/12/22 04:09:20;;;;;;;1.65;0.98;;;;;;;;;;5077139;28;20204;-66
2023/12/22 04:11:47;;;;;;;1.60;0.80;;;;;;;;;;5076916;28;20215;-65
2023/12/22 04:14:15;;;;;;;2.30;0.98;;;;;;;;;;5077227;28;20208;-66
2023/12/22 04:16:42;;;;;;;2.30;0.73;;;;;;;;;;5080259;28;20228;-65
2023/12/22 04:19:10;;;;;;;2.70;1.10;;;;;;;;;;5081039;28;20204;-66
2023/12/22 04:21:37;;;;;;;1.55;1.00;;;;;;;;;;5080822;28;20552;-65
2023/12/22 04:24:07;;;;;;;1.60;0.85;;;;;;;;;;5080480;28;20240;-66
2023/12/22 04:26:34;;;;;;;1.50;0.80;;;;;;;;;;5080358;28;20200;-66
2023/12/22 04:29:02;;;;;;;1.35;0.88;;;;;;;;;;5080918;28;20470;-66
2023/12/22 04:31:30;;;;;;;1.52;0.90;;;;;;;;;;5080680;28;20235;-66
2023/12/22 04:33:57;;;;;;;1.88;0.85;;;;;;;;;;5080605;28;20204;-65
2023/12/22 04:36:24;;;;;;;1.23;0.68;;;;;;;;;;5080787;28;20687;-66
2023/12/22 04:38:52;;;;;;;2.03;0.98;;;;;;;;;;5080651;28;20204;-66
2023/12/22 04:41:21;;;;;;;1.30;0.93;;;;;;;;;;5081232;28;20485;-66
2023/12/22 04:43:49;;;;;;;2.00;0.93;;;;;;;;;;5080628;28;20285;-65
2023/12/22 04:46:16;;;;;;;1.50;0.88;;;;;;;;;;5080371;28;20204;-65
2023/12/22 04:48:44;;;;;;;1.63;0.90;;;;;;;;;;5080585;28;20213;-65
2023/12/22 04:51:11;;;;;;;2.05;0.70;;;;;;;;;;5080241;28;20204;-65
2023/12/22 04:53:39;;;;;;;1.65;0.75;;;;;;;;;;5080647;28;20219;-65
2023/12/22 04:56:07;;;;;;;1.50;0.60;;;;;;;;;;5079850;28;20542;-65
2023/12/22 04:58:36;;;;;;;2.15;1.00;;;;;;;;;;5079835;28;20236;-66
2023/12/22 05:01:03;;;;;;;2.17;0.80;;;;;;;;;;5080336;28;20211;-65
2023/12/22 05:03:31;;;;;;;1.45;0.80;;;;;;;;;;5080243;28;20204;-65
2023/12/22 05:05:58;;;;;;;3.10;0.80;;;;;;;;;;5080093;28;20212;-65
2023/12/22 05:08:26;;;;;;;1.65;0.70;;;;;;;;;;5079923;28;20201;-65
2023/12/22 05:10:53;;;;;;;2.00;1.00;;;;;;;;;;5079486;28;20570;-66
2023/12/22 05:13:20;;;;;;;2.22;0.90;;;;;;;;;;5079986;28;20204;-66
2023/12/22 05:15:49;;;;;;;2.15;0.90;;;;;;;;;;5079992;28;20574;-65
2023/12/22 05:18:16;;;;;;;2.78;0.98;;;;;;;;;;5079944;28;20643;-65
2023/12/22 05:20:44;;;;;;;1.10;0.70;;;;;;;;;;5079621;28;20204;-65
2023/12/22 05:23:12;;;;;;;1.08;0.50;;;;;;;;;;5080263;28;20204;-65
2023/12/22 05:25:40;;;;;;;1.38;0.70;;;;;;;;;;5080023;28;20204;-65
2023/12/22 05:28:07;;;;;;;1.48;0.70;;;;;;;;;;5079296;28;20286;-65
2023/12/22 05:30:35;;;;;;;1.10;0.50;;;;;;;;;;5079618;28;20216;-65
2023/12/22 05:33:03;;;;;;;1.52;0.88;;;;;;;;;;5079436;28;20211;-65
2023/12/22 05:35:31;;;;;;;1.75;0.80;;;;;;;;;;5078936;28;20239;-66
2023/12/22 05:37:59;;;;;;;1.05;0.68;;;;;;;;;;5079184;28;20228;-66
2023/12/22 05:40:26;;;;;;;1.08;0.70;;;;;;;;;;5079074;28;20205;-66
2023/12/22 05:42:53;;;;;;;1.65;0.70;;;;;;;;;;5079607;28;20204;-66
2023/12/22 05:45:21;;;;;;;1.13;0.70;;;;;;;;;;5078692;28;20212;-66
2023/12/22 05:47:48;;;;;;;1.42;0.88;;;;;;;;;;5079074;28;20212;-66
2023/12/22 05:50:17;;;;;;;1.13;0.60;;;;;;;;;;5079075;28;20204;-66
2023/12/22 05:52:45;;;;;;;1.40;0.88;;;;;;;;;;5078848;28;20204;-65
2023/12/22 05:55:12;;;;;;;1.40;0.90;;;;;;;;;;5078765;28;20239;-66
2023/12/22 05:57:40;;;;;;;1.60;0.77;;;;;;;;;;5078130;28;20523;-66
2023/12/22 06:00:10;;;;;;;1.42;0.60;;;;;;;;;;5078261;28;20649;-66
2023/12/22 06:02:38;;;;;;;1.77;0.73;;;;;;;;;;5078108;28;20200;-65
2023/12/22 06:05:07;;;;;;;1.13;0.65;;;;;;;;;;5077314;28;20219;-65
2023/12/22 06:07:36;;;;;;;2.30;0.75;;;;;;;;;;5077903;28;20212;-66
2023/12/22 06:10:03;;;;;;;1.25;0.60;;;;;;;;;;5077955;28;20204;-66
2023/12/22 06:12:30;;;;;;;1.73;0.60;;;;;;;;;;5077281;28;20211;-66
2023/12/22 06:14:58;;;;;;;1.27;0.80;;;;;;;;;;5077820;28;20586;-66
2023/12/22 06:17:25;;;;;;;1.40;0.70;;;;;;;;;;5077787;28;20229;-65
2023/12/22 06:19:53;;;;;;;1.00;0.50;;;;;;;;;;5077396;28;20327;-65
2023/12/22 06:22:21;;;;;;;2.20;0.70;;;;;;;;;;5078100;28;20216;-65
2023/12/22 06:24:49;;;;;;;1.55;0.80;;;;;;;;;;5077550;28;20204;-65
2023/12/22 06:27:17;;;;;;;1.75;0.70;;;;;;;;;;5077852;28;20210;-65
2023/12/22 06:29:44;;;;;;;1.65;0.75;;;;;;;;;;5077484;28;20214;-66
2023/12/22 06:32:12;;;;;;;0.85;0.60;;;;;;;;;;5077238;28;20579;-65
2023/12/22 06:34:39;;;;;;;2.00;0.70;;;;;;;;;;5076762;28;20203;-65
2023/12/22 06:37:08;;;;;;;1.23;0.63;;;;;;;;;;5076878;28;20613;-65
2023/12/22 06:39:35;;;;;;;1.52;0.98;;;;;;;;;;5076616;28;20227;-65
2023/12/22 06:42:06;;;;;;;1.15;0.60;;;;;;;;;;5076162;28;20200;-65
2023/12/22 06:44:34;;;;;;;1.05;0.65;;;;;;;;;;5076875;28;20208;-65
2023/12/22 06:47:01;;;;;;;2.42;0.73;;;;;;;;;;5076424;28;20207;-66
2023/12/22 06:49:28;;;;;;;1.10;0.68;;;;;;;;;;5077015;28;20208;-65
2023/12/22 06:51:56;;;;;;;0.93;0.60;;;;;;;;;;5076933;28;20215;-65
2023/12/22 06:54:23;;;;;;;2.58;0.70;;;;;;;;;;5077864;28;20219;-65
2023/12/22 06:56:51;;;;;;;2.70;0.70;;;;;;;;;;5077436;28;20224;-65
2023/12/22 06:59:20;;;;;;;1.50;0.77;;;;;;;;;;5093520;28;20239;-66
2023/12/22 07:01:47;;;;;;;1.48;0.50;;;;;;;;;;5097220;28;20218;-66
2023/12/22 07:04:14;;;;;;;1.30;0.70;;;;;;;;;;5096134;28;20714;-65
2023/12/22 07:06:42;;;;;;;1.33;0.63;;;;;;;;;;5097713;28;20204;-65
2023/12/22 07:09:28;;;;;;;1.20;0.60;;;;;;;;;;5097265;28;20295;-65
2023/12/22 07:11:56;;;;;;;1.85;0.80;;;;;;;;;;5097284;28;20762;-65
2023/12/22 07:14:25;;;;;;;0.60;0.50;;;;;;;;;;5097297;28;20203;-66
2023/12/22 07:16:53;;;;;;;1.50;0.70;;;;;;;;;;5097484;28;20210;-65
2023/12/22 07:19:20;;;;;;;1.17;0.60;;;;;;;;;;5097600;28;20204;-65
2023/12/22 07:21:47;;;;;;;2.00;0.70;;;;;;;;;;5097292;28;20214;-65
2023/12/22 07:24:15;;;;;;;1.67;0.50;;;;;;;;;;5096513;28;20200;-66
2023/12/22 07:26:44;;;;;;;1.10;0.60;;;;;;;;;;5097044;28;20235;-65
2023/12/22 07:29:11;;;;;;;1.05;0.65;;;;;;;;;;5097442;28;20578;-65
2023/12/22 07:31:40;;;;;;;0.95;0.50;;;;;;;;;;5097500;28;20203;-65
2023/12/22 07:34:07;;;;;;;1.73;0.60;;;;;;;;;;5096017;28;20203;-65
2023/12/22 07:36:34;;;;;;;1.35;0.70;;;;;;;;;;5095882;28;20214;-65
2023/12/22 07:39:02;;;;;;;2.67;0.90;;;;;;;;;;5096259;28;20639;-66
2023/12/22 07:41:30;;;;;;;2.65;1.00;;;;;;;;;;5096159;28;20203;-65
2023/12/22 07:43:57;;;;;;;1.85;0.68;;;;;;;;;;5096346;28;20214;-65
2023/12/22 07:46:24;;;;;;;1.70;0.70;;;;;;;;;;5096952;28;20472;-65
2023/12/22 07:48:53;;;;;;;1.38;0.80;;;;;;;;;;5096372;28;20199;-66
2023/12/22 07:51:20;;;;;;;3.72;0.80;;;;;;;;;;5095956;28;20208;-66
2023/12/22 07:53:48;;;;;;;1.25;0.57;;;;;;;;;;5096956;28;20215;-66
2023/12/22 07:56:16;;;;;;;2.35;0.95;;;;;;;;;;5096785;28;20207;-66
2023/12/22 07:58:43;;;;;;;1.25;0.70;;;;;;;;;;5096286;28;20228;-65
2023/12/22 08:01:10;;;;;;;2.90;0.90;;;;;;;;;;5095867;28;20211;-65
2023/12/22 08:03:38;;;;;;;2.50;1.00;;;;;;;;;;5096336;28;20201;-65
2023/12/22 08:06:08;;;;;;;2.17;0.82;;;;;;;;;;5096048;28;20199;-66
2023/12/22 08:08:36;;;;;;;1.00;0.80;;;;;;;;;;5095815;28;20199;-66
2023/12/22 08:11:03;;;;;;;2.33;0.70;;;;;;;;;;5095737;28;20204;-66
2023/12/22 08:13:31;;;;;;;1.15;0.60;;;;;;;;;;5095976;28;20211;-66
2023/12/22 08:15:58;;;;;;;1.35;0.77;;;;;;;;;;5094991;28;20203;-66
2023/12/22 08:18:25;;;;;;;2.30;0.70;;;;;;;;;;5095145;28;20228;-66
2023/12/22 08:20:53;;;;;;;2.00;0.70;;;;;;;;;;5095926;28;20203;-67
2023/12/22 08:23:22;;;;;;;1.10;0.50;;;;;;;;;;5095873;28;20203;-65
2023/12/22 08:25:49;;;;;;;1.55;0.80;;;;;;;;;;5096275;28;20204;-65
2023/12/22 08:28:16;;;;;;;0.82;0.70;;;;;;;;;;5096006;28;20480;-65
2023/12/22 08:30:44;;;;;;;1.52;0.73;;;;;;;;;;5096250;28;20596;-66
2023/12/22 08:33:11;;;;;;;1.35;0.82;;;;;;;;;;5095854;28;20195;-65
2023/12/22 08:35:39;;;;;;;1.40;0.68;;;;;;;;;;5095570;28;20581;-65
2023/12/22 08:38:07;;;;;;;1.13;0.63;;;;;;;;;;5095584;28;20219;-65
2023/12/22 08:40:35;;;;;;;1.70;0.70;;;;;;;;;;5095942;28;20200;-65
2023/12/22 08:43:03;;;;;;;0.98;0.70;;;;;;;;;;5096112;28;20561;-67
2023/12/22 08:45:30;;;;;;;0.88;0.60;;;;;;;;;;5095175;28;20595;-67
2023/12/22 08:47:58;;;;;;;1.42;0.80;;;;;;;;;;5095446;28;20200;-66
2023/12/22 08:50:26;;;;;;;1.45;0.88;;;;;;;;;;5095196;28;20203;-65
2023/12/22 08:52:54;;;;;;;0.85;0.55;;;;;;;;;;5095113;28;20204;-65
2023/12/22 08:55:21;;;;;;;0.75;0.60;;;;;;;;;;5096086;28;20211;-67
2023/12/22 08:57:50;;;;;;;2.15;0.60;;;;;;;;;;5094184;28;20228;-67
2023/12/22 09:00:17;;;;;;;1.42;0.50;;;;;;;;;;5094829;28;20203;-67
2023/12/22 09:02:45;;;;;;;0.73;0.60;;;;;;;;;;5096653;28;20200;-67
2023/12/22 09:05:12;;;;;;;2.15;0.75;;;;;;;;;;5099656;28;20207;-67
2023/12/22 09:07:40;;;;;;;1.10;0.55;;;;;;;;;;5099411;28;20215;-67
2023/12/22 09:10:08;;;;;;;1.10;0.68;;;;;;;;;;5099274;28;20268;-67
2023/12/22 09:12:35;;;;;;;2.10;0.60;;;;;;;;;;5098908;28;20490;-68
2023/12/22 09:15:04;;;;;;;1.08;0.80;;;;;;;;;;5099083;28;20211;-67
2023/12/22 09:17:32;;;;;;;1.42;0.77;;;;;;;;;;5098825;28;20214;-67
2023/12/22 09:19:59;;;;;;;1.08;0.57;;;;;;;;;;5098613;28;20252;-65
2023/12/22 09:22:26;;;;;;;1.52;0.60;;;;;;;;;;5098873;28;20206;-67
2023/12/22 09:24:54;;;;;;;0.95;0.60;;;;;;;;;;5098321;28;20203;-67
2023/12/22 09:27:21;;;;;;;0.85;0.60;;;;;;;;;;5098805;28;20714;-67
2023/12/22 09:29:49;;;;;;;0.88;0.60;;;;;;;;;;5098580;28;20200;-67
2023/12/22 09:32:18;;;;;;;0.90;0.70;;;;;;;;;;5098480;28;20210;-67
2023/12/22 09:34:45;;;;;;;0.93;0.60;;;;;;;;;;5098106;28;20588;-67
2023/12/22 09:37:12;;;;;;;1.08;0.63;;;;;;;;;;5098860;28;20203;-67
2023/12/22 09:39:40;;;;;;;0.85;0.73;;;;;;;;;;5098104;28;20246;-67
2023/12/22 09:42:07;;;;;;;3.00;0.90;;;;;;;;;;5098154;28;20204;-67
2023/12/22 09:44:36;;;;;;;1.77;0.70;;;;;;;;;;5097299;28;20207;-67
2023/12/22 09:47:05;;;;;;;1.77;0.68;;;;;;;;;;5097833;28;20203;-65
2023/12/22 09:49:34;;;;;;;0.77;0.60;;;;;;;;;;5097884;28;20526;-67
2023/12/22 09:52:03;;;;;;;0.95;0.63;;;;;;;;;;5097877;28;20210;-67
2023/12/22 09:54:32;;;;;;;0.88;0.77;;;;;;;;;;5097349;28;20212;-66
2023/12/22 09:57:00;;;;;;;1.13;0.50;;;;;;;;;;5097741;28;20204;-65
2023/12/22 09:59:28;;;;;;;1.05;0.55;;;;;;;;;;5078608;28;20593;-66
2023/12/22 10:01:56;;;;;;;0.88;0.68;;;;;;;;;;5077280;28;20243;-66
2023/12/22 10:04:24;;;;;;;1.73;0.68;;;;;;;;;;5077163;28;20204;-66
2023/12/22 10:06:53;;;;;;;1.17;0.57;;;;;;;;;;5077206;28;20201;-66
2023/12/22 10:09:21;;;;;;;0.60;0.60;;;;;;;;;;5076550;28;20222;-66
2023/12/22 10:11:50;;;;;;;1.13;0.63;;;;;;;;;;5076890;28;20235;-66
2023/12/22 10:14:22;;;;;;;1.58;0.80;;;;;;;;;;5077174;28;20204;-66
2023/12/22 10:16:49;;;;;;;1.10;0.63;;;;;;;;;;5077004;28;20208;-66
2023/12/22 10:19:17;;;;;;;1.15;0.57;;;;;;;;;;5077312;28;20298;-66
2023/12/22 10:21:44;;;;;;;1.30;0.63;;;;;;;;;;5077111;28;20196;-66
2023/12/22 10:24:37;;;;;;;1.08;0.57;;;;;;;;;;5077265;28;20200;-66
2023/12/22 10:27:05;;;;;;;1.33;0.68;;;;;;;;;;5075386;28;20601;-66
2023/12/22 10:29:33;;;;;;;0.57;0.52;;;;;;;;;;5075408;28;20270;-66
2023/12/22 10:32:02;;;;;;;1.98;0.60;;;;;;;;;;5075853;28;20274;-66
2023/12/22 10:34:30;;;;;;;1.30;0.60;;;;;;;;;;5075994;28;20204;-66
2023/12/22 10:36:57;;;;;;;1.05;0.47;;;;;;;;;;5076385;28;20201;-66
2023/12/22 10:39:31;;;;;;;0.80;0.52;;;;;;;;;;5070170;28;20236;-66
2023/12/22 10:42:00;;;;;;;0.80;0.60;;;;;;;;;;5076469;28;20285;-66
2023/12/22 10:44:27;;;;;;;0.77;0.50;;;;;;;;;;5075760;28;20231;-66
2023/12/22 10:46:55;;;;;;;0.80;0.57;;;;;;;;;;5075192;28;20211;-66
2023/12/22 10:49:23;;;;;;;0.90;0.43;;;;;;;;;;5074978;28;20303;-66
2023/12/22 10:51:50;;;;;;;0.98;0.57;;;;;;;;;;5075924;28;20208;-66
2023/12/22 10:54:19;;;;;;;1.10;0.80;;;;;;;;;;5076554;28;20211;-66
2023/12/22 10:56:48;;;;;;;1.08;0.60;;;;;;;;;;5075418;28;20215;-66
2023/12/22 10:59:18;;;;;;;0.80;0.60;;;;;;;;;;5092147;28;20231;-67
2023/12/22 11:01:46;;;;;;;1.45;0.75;;;;;;;;;;5095791;28;20211;-66
2023/12/22 11:04:15;;;;;;;0.95;0.50;;;;;;;;;;5095363;28;20203;-66
2023/12/22 11:06:44;;;;;;;1.17;0.63;;;;;;;;;;5095621;28;20647;-66
2023/12/22 11:09:12;;;;;;;0.57;0.50;;;;;;;;;;5095137;28;20213;-66
2023/12/22 11:11:40;;;;;;;1.10;0.55;;;;;;;;;;5094116;28;20215;-66
2023/12/22 11:14:09;;;;;;;0.70;0.50;;;;;;;;;;5095846;28;20611;-66
2023/12/22 11:16:37;;;;;;;0.93;0.70;;;;;;;;;;5095350;28;20199;-66
2023/12/22 11:19:05;;;;;;;1.58;0.90;;;;;;;;;;5094682;28;20730;-66
2023/12/22 11:21:33;;;;;;;1.63;0.68;;;;;;;;;;5095038;28;20573;-66
2023/12/22 11:24:01;;;;;;;1.23;0.70;;;;;;;;;;5095766;28;20239;-66
2023/12/22 11:26:28;;;;;;;0.85;0.50;;;;;;;;;;5094628;28;20203;-67
2023/12/22 11:28:56;;;;;;;0.82;0.50;;;;;;;;;;5094631;28;20203;-66
2023/12/22 11:31:27;;;;;;;1.00;0.50;;;;;;;;;;5096361;28;20210;-66
2023/12/22 11:33:56;;;;;;;0.68;0.40;;;;;;;;;;5095359;28;20200;-66
2023/12/22 11:36:24;;;;;;;1.08;0.60;;;;;;;;;;5095074;28;20214;-66
2023/12/22 11:38:52;;;;;;;1.38;0.60;;;;;;;;;;5095049;28;20226;-66
2023/12/22 11:41:21;;;;;;;0.57;0.50;;;;;;;;;;5095439;28;20200;-66
2023/12/22 11:43:49;;;;;;;1.15;0.60;;;;;;;;;;5095210;28;20195;-65
2023/12/22 11:46:18;;;;;;;0.88;0.63;;;;;;;;;;5095628;28;20566;-66
2023/12/22 11:48:50;;;;;;;0.73;0.50;;;;;;;;;;5095672;28;20200;-65
2023/12/22 11:51:18;;;;;;;1.38;0.88;;;;;;;;;;5095405;28;20599;-66
2023/12/22 11:53:46;;;;;;;1.13;0.50;;;;;;;;;;5094939;28;20200;-66
2023/12/22 11:56:14;;;;;;;1.38;0.82;;;;;;;;;;5095202;28;20737;-66
2023/12/22 11:58:42;;;;;;;0.47;0.47;;;;;;;;;;5093849;28;20478;-66
2023/12/22 12:01:11;;;;;;;0.50;0.40;;;;;;;;;;5094652;28;20210;-66
2023/12/22 12:03:41;;;;;;;1.25;0.57;;;;;;;;;;5095075;28;20214;-66
2023/12/22 12:06:16;;;;;;;0.40;0.40;;;;;;;;;;5094733;28;20211;-66
2023/12/22 12:08:43;;;;;;;0.60;0.45;;;;;;;;;;5094892;28;20211;-66
2023/12/22 12:11:11;;;;;;;0.77;0.50;;;;;;;;;;5095107;28;20234;-66
2023/12/22 12:13:44;;;;;;;0.95;0.50;;;;;;;;;;5094867;28;20540;-66
2023/12/22 12:16:12;;;;;;;0.73;0.50;;;;;;;;;;5094579;28;20211;-66
2023/12/22 12:18:40;;;;;;;1.27;0.60;;;;;;;;;;5094382;28;20200;-66
2023/12/22 12:21:09;;;;;;;0.68;0.40;;;;;;;;;;5094405;28;20302;-66
2023/12/22 12:23:38;;;;;;;0.50;0.40;;;;;;;;;;5094980;28;20554;-66
2023/12/22 12:26:07;;;;;;;1.05;0.50;;;;;;;;;;5094623;28;20212;-66
2023/12/22 12:28:35;;;;;;;0.82;0.50;;;;;;;;;;5094496;28;20195;-66
2023/12/22 12:31:04;;;;;;;0.57;0.50;;;;;;;;;;5095273;28;20208;-66
2023/12/22 12:33:31;;;;;;;0.90;0.40;;;;;;;;;;5094015;28;20621;-66
2023/12/22 12:36:00;;;;;;;0.77;0.43;;;;;;;;;;5094730;28;20214;-66
2023/12/22 12:38:35;;;;;;;1.65;0.50;;;;;;;;;;5097745;28;20214;-66
2023/12/22 12:41:05;;;;;;;1.17;0.70;;;;;;;;;;5098394;28;20293;-66
2023/12/22 12:43:33;;;;;;;1.02;0.60;;;;;;;;;;5098149;28;20203;-66
2023/12/22 12:46:05;;;;;;;0.40;0.40;;;;;;;;;;5098826;28;20539;-66
2023/12/22 12:48:32;;;;;;;0.85;0.55;;;;;;;;;;5098558;28;20276;-66
2023/12/22 12:51:03;;;;;;;0.40;0.40;;;;;;;;;;5098598;28;20210;-66
2023/12/22 12:53:32;;;;;;;0.57;0.38;;;;;;;;;;5098496;28;20286;-66
2023/12/22 12:55:59;;;;;;;0.65;0.60;;;;;;;;;;5098417;28;20199;-66
2023/12/22 12:58:31;;;;;;;0.75;0.40;;;;;;;;;;5098007;28;20234;-66
2023/12/22 13:01:10;;;;;;;0.93;0.60;;;;;;;;;;5097846;28;20219;-66
2023/12/22 13:03:52;;;;;;;0.65;0.50;;;;;;;;;;5098099;28;20207;-66
2023/12/22 13:06:20;;;;;;;0.85;0.50;;;;;;;;;;5098714;28;20701;-66
2023/12/22 13:08:49;;;;;;;0.68;0.63;;;;;;;;;;5097524;28;20215;-66
2023/12/22 13:11:17;;;;;;;0.75;0.50;;;;;;;;;;5098815;28;20201;-66
2023/12/22 13:13:45;;;;;;;1.83;0.77;;;;;;;;;;5097548;28;20203;-66
2023/12/22 13:16:13;;;;;;;1.25;0.70;;;;;;;;;;5097560;28;20204;-66
2023/12/22 13:18:40;;;;;;;1.25;0.73;;;;;;;;;;5098024;28;20210;-66
2023/12/22 13:21:08;;;;;;;1.45;0.80;;;;;;;;;;5098302;28;20227;-66
2023/12/22 13:23:35;;;;;;;1.60;1.10;;;;;;;;;;5097498;28;20619;-66
2023/12/22 13:26:03;;;;;;;0.88;0.70;;;;;;;;;;5098062;28;20214;-66
2023/12/22 13:28:30;;;;;;;1.75;0.88;;;;;;;;;;5097681;28;20204;-66
2023/12/22 13:31:00;;;;;;;1.80;0.90;;;;;;;;;;5097645;28;20246;-66
2023/12/22 13:33:28;;;;;;;2.85;0.70;;;;;;;;;;5097390;28;20199;-67
2023/12/22 13:35:58;;;;;;;1.75;1.02;;;;;;;;;;5097408;28;20282;-66
2023/12/22 13:38:25;;;;;;;1.77;0.90;;;;;;;;;;5098175;28;20215;-66
2023/12/22 13:40:53;;;;;;;2.83;1.10;;;;;;;;;;5097350;28;20227;-66
2023/12/22 13:43:20;;;;;;;1.33;0.90;;;;;;;;;;5097998;28;20203;-66
2023/12/22 13:45:53;;;;;;;1.73;1.00;;;;;;;;;;5097810;28;20213;-66
2023/12/22 13:48:21;;;;;;;1.88;0.93;;;;;;;;;;5097690;28;20518;-67
2023/12/22 13:50:57;;;;;;;2.58;1.02;;;;;;;;;;5098051;28;20196;-66
2023/12/22 13:53:25;;;;;;;2.22;1.10;;;;;;;;;;5097508;28;20202;-66
2023/12/22 13:55:55;;;;;;;2.25;1.25;;;;;;;;;;5097556;28;20592;-66
2023/12/22 13:58:23;;;;;;;2.28;1.05;;;;;;;;;;5096519;28;20231;-66
2023/12/22 14:00:50;;;;;;;2.70;1.23;;;;;;;;;;5097130;28;20219;-66
2023/12/22 14:03:21;;;;;;;3.53;1.10;;;;;;;;;;5096409;28;20207;-66
2023/12/22 14:05:50;;;;;;;1.52;1.10;;;;;;;;;;5096604;28;20212;-67
2023/12/22 14:08:17;;;;;;;3.90;1.20;;;;;;;;;;5097141;28;20208;-66
2023/12/22 14:10:48;;;;;;;4.15;1.55;;;;;;;;;;5097106;28;20712;-67
2023/12/22 14:13:15;;;;;;;1.80;1.13;;;;;;;;;;5096281;28;20632;-67
2023/12/22 14:15:44;;;;;;;3.50;1.25;;;;;;;;;;5111757;28;20199;-66
2023/12/22 14:18:11;;;;;;;1.77;1.10;;;;;;;;;;5117403;28;20291;-66
2023/12/22 14:20:38;;;;;;;2.13;1.15;;;;;;;;;;5117280;28;20624;-66
2023/12/22 14:23:07;;;;;;;2.97;1.20;;;;;;;;;;5117631;28;20203;-66
2023/12/22 14:25:34;;;;;;;3.92;1.70;;;;;;;;;;5117985;28;20290;-67
2023/12/22 14:28:02;;;;;;;2.55;1.27;;;;;;;;;;5116564;28;20289;-66
2023/12/22 14:30:29;;;;;;;1.92;1.10;;;;;;;;;;5116186;28;20199;-66
2023/12/22 14:32:57;;;;;;;3.90;1.27;;;;;;;;;;5116750;28;20203;-66
2023/12/22 14:35:24;;;;;;;2.75;1.25;;;;;;;;;;5117065;28;20203;-66
2023/12/22 14:37:51;;;;;;;3.53;1.40;;;;;;;;;;5117185;28;20210;-66
2023/12/22 14:40:20;;;;;;;2.95;1.13;;;;;;;;;;5116266;28;20237;-66
2023/12/22 14:42:48;;;;;;;2.85;1.23;;;;;;;;;;5117459;28;20565;-66
2023/12/22 14:45:15;;;;;;;2.03;1.17;;;;;;;;;;5117327;28;20195;-67
2023/12/22 14:47:43;;;;;;;2.20;1.10;;;;;;;;;;5116787;28;20561;-66